createdAt,value
2023-05-05T00:01:06.198Z,92997.94
2023-05-05T00:03:33.245Z,92997.94
2023-05-05T00:05:59.791Z,93000.66
2023-05-05T00:08:26.431Z,92994.69
2023-05-05T00:10:53.368Z,92987.50
2023-05-05T00:13:20.328Z,92990.22
2023-05-05T00:15:47.833Z,92992.66
2023-05-05T00:18:15.704Z,92987.22
2023-05-05T00:20:42.891Z,92990.97
2023-05-05T00:23:09.347Z,92986.72
2023-05-05T00:25:35.837Z,92980.81
2023-05-05T00:28:02.356Z,92984.78
2023-05-05T00:30:28.837Z,92979.78
2023-05-05T00:32:55.578Z,92982.06
2023-05-05T00:35:22.099Z,92971.66
2023-05-05T00:37:49.206Z,92974.47
2023-05-05T00:40:16.071Z,92977.22
2023-05-05T00:42:47.806Z,92977.25
2023-05-05T00:45:15.249Z,92979.97
2023-05-05T00:47:42.428Z,92974.81
2023-05-05T00:50:09.422Z,92974.09
2023-05-05T00:52:36.894Z,92968.19
2023-05-05T00:55:04.468Z,92975.38
2023-05-05T00:57:32.332Z,92969.19
2023-05-05T00:59:59.128Z,92979.31
2023-05-05T01:02:25.753Z,92972.63
2023-05-05T01:04:52.692Z,92967.88
2023-05-05T01:07:48.300Z,92971.84
2023-05-05T01:10:20.184Z,92964.16
2023-05-05T01:13:05.929Z,92969.88
2023-05-05T01:15:40.414Z,92965.88
2023-05-05T01:18:11.856Z,92958.41
2023-05-05T01:21:07.114Z,92955.94
2023-05-05T01:24:14.028Z,92961.19
2023-05-05T01:27:27.279Z,92962.09
2023-05-05T01:30:01.998Z,92953.81
2023-05-05T01:32:29.978Z,92957.97
2023-05-05T01:34:59.677Z,92960.47
2023-05-05T01:37:49.561Z,92952.00
2023-05-05T01:40:16.335Z,92957.13
2023-05-05T01:42:43.497Z,92958.34
2023-05-05T01:45:11.836Z,92956.56
2023-05-05T01:47:38.337Z,92962.69
2023-05-05T01:50:06.236Z,92958.19
2023-05-05T01:52:33.378Z,92959.38
2023-05-05T01:54:59.885Z,92956.84
2023-05-05T01:57:26.540Z,92959.03
2023-05-05T01:59:53.009Z,92959.72
2023-05-05T02:02:20.049Z,92959.44
2023-05-05T02:04:46.820Z,92946.25
2023-05-05T02:07:13.665Z,92957.09
2023-05-05T02:09:40.146Z,92957.78
2023-05-05T02:12:06.815Z,92962.22
2023-05-05T02:14:33.268Z,92965.88
2023-05-05T02:16:59.755Z,92965.06
2023-05-05T02:19:30.950Z,92958.38
2023-05-05T02:21:57.555Z,92958.56
2023-05-05T02:24:24.735Z,92963.00
2023-05-05T02:26:52.022Z,92967.19
2023-05-05T02:29:31.507Z,92974.34
2023-05-05T02:32:01.895Z,92963.22
2023-05-05T02:34:28.410Z,92961.50
2023-05-05T02:36:57.659Z,92957.06
2023-05-05T02:39:45.260Z,92955.38
2023-05-05T02:42:13.460Z,92956.88
2023-05-05T02:44:41.286Z,92954.84
2023-05-05T02:47:07.987Z,92958.03
2023-05-05T02:49:34.456Z,92953.56
2023-05-05T02:52:01.018Z,92947.13
2023-05-05T02:54:27.500Z,92948.53
2023-05-05T02:56:53.961Z,92957.41
2023-05-05T02:59:31.014Z,92954.34
2023-05-05T03:02:07.661Z,92963.88
2023-05-05T03:04:47.200Z,92959.94
2023-05-05T03:07:35.856Z,92954.44
2023-05-05T03:10:10.278Z,92951.66
2023-05-05T03:12:40.896Z,92941.00
2023-05-05T03:15:08.069Z,92944.47
2023-05-05T03:17:34.560Z,92944.47
2023-05-05T03:20:03.474Z,92944.69
2023-05-05T03:22:30.634Z,92937.72
2023-05-05T03:24:57.082Z,92935.75
2023-05-05T03:27:23.579Z,92932.59
2023-05-05T03:29:50.058Z,92943.13
2023-05-05T03:32:16.603Z,92937.41
2023-05-05T03:34:43.140Z,92936.19
2023-05-05T03:37:09.595Z,92935.63
2023-05-05T03:39:36.090Z,92935.84
2023-05-05T03:42:02.618Z,92938.22
2023-05-05T03:44:29.116Z,92934.75
2023-05-05T03:46:55.637Z,92937.19
2023-05-05T03:49:22.102Z,92930.75
2023-05-05T03:51:48.566Z,92933.94
2023-05-05T03:54:15.358Z,92935.94
2023-05-05T03:56:41.893Z,92938.81
2023-05-05T03:59:08.782Z,92939.03
2023-05-05T04:01:35.706Z,92940.00
2023-05-05T04:04:02.230Z,92945.41
2023-05-05T04:06:28.782Z,92946.63
2023-05-05T04:08:55.569Z,92938.50
2023-05-05T04:11:22.060Z,92936.75
2023-05-05T04:13:49.925Z,92937.47
2023-05-05T04:16:16.683Z,92936.75
2023-05-05T04:18:43.188Z,92929.78
2023-05-05T04:21:09.647Z,92932.97
2023-05-05T04:23:36.105Z,92925.88
2023-05-05T04:26:03.018Z,92929.03
2023-05-05T04:28:29.753Z,92929.53
2023-05-05T04:30:56.267Z,92935.44
2023-05-05T04:33:22.803Z,92935.91
2023-05-05T04:35:49.294Z,92934.94
2023-05-05T04:38:15.993Z,92939.72
2023-05-05T04:40:42.602Z,92939.72
2023-05-05T04:43:09.079Z,92935.78
2023-05-05T04:45:35.591Z,92942.31
2023-05-05T04:48:02.158Z,92941.13
2023-05-05T04:50:28.665Z,92948.41
2023-05-05T04:52:56.226Z,92949.97
2023-05-05T04:55:22.767Z,92942.16
2023-05-05T04:57:49.227Z,92951.00
2023-05-05T05:00:16.069Z,92941.72
2023-05-05T05:02:42.602Z,92956.66
2023-05-05T05:05:09.610Z,92963.84
2023-05-05T05:07:36.175Z,92950.31
2023-05-05T05:10:02.697Z,92953.13
2023-05-05T05:12:29.173Z,92958.16
2023-05-05T05:14:55.854Z,92951.34
2023-05-05T05:17:23.771Z,92964.03
2023-05-05T05:19:50.268Z,92958.47
2023-05-05T05:22:16.770Z,92953.84
2023-05-05T05:24:43.272Z,92960.63
2023-05-05T05:27:10.334Z,92959.13
2023-05-05T05:29:36.962Z,92963.34
2023-05-05T05:32:03.475Z,92960.34
2023-05-05T05:34:29.961Z,92966.56
2023-05-05T05:36:56.498Z,92964.59
2023-05-05T05:39:23.215Z,92966.13
2023-05-05T05:41:49.670Z,92966.63
2023-05-05T05:44:16.129Z,92965.91
2023-05-05T05:46:42.660Z,92965.91
2023-05-05T05:49:09.253Z,92972.63
2023-05-05T05:51:35.718Z,92974.34
2023-05-05T05:54:02.193Z,92973.94
2023-05-05T05:56:29.298Z,92979.19
2023-05-05T05:58:56.177Z,92978.53
2023-05-05T06:01:22.624Z,92978.38
2023-05-05T06:03:49.174Z,92979.22
2023-05-05T06:06:15.725Z,92977.28
2023-05-05T06:08:42.206Z,92975.38
2023-05-05T06:11:08.734Z,92984.59
2023-05-05T06:13:35.293Z,92980.66
2023-05-05T06:16:01.873Z,92985.59
2023-05-05T06:18:28.669Z,92981.91
2023-05-05T06:20:55.158Z,92985.41
2023-05-05T06:23:21.997Z,92981.94
2023-05-05T06:25:48.478Z,92981.22
2023-05-05T06:28:14.978Z,92979.25
2023-05-05T06:30:41.442Z,92981.97
2023-05-05T06:33:07.966Z,92981.47
2023-05-05T06:35:34.575Z,92975.28
2023-05-05T06:38:01.124Z,92981.47
2023-05-05T06:40:27.660Z,92983.69
2023-05-05T06:42:54.130Z,92983.19
2023-05-05T06:45:20.582Z,92981.94
2023-05-05T06:47:47.145Z,92982.19
2023-05-05T06:50:13.644Z,92989.84
2023-05-05T06:52:41.114Z,92983.84
2023-05-05T06:55:07.973Z,92978.97
2023-05-05T06:57:34.489Z,92985.78
2023-05-05T07:00:01.129Z,92974.47
2023-05-05T07:02:27.747Z,92983.13
2023-05-05T07:04:55.412Z,92985.25
2023-05-05T07:07:22.355Z,92978.84
2023-05-05T07:09:48.992Z,92972.44
2023-05-05T07:12:15.535Z,92966.31
2023-05-05T07:14:42.078Z,92976.13
2023-05-05T07:17:08.604Z,92973.97
2023-05-05T07:19:35.106Z,92967.13
2023-05-05T07:22:01.631Z,92965.53
2023-05-05T07:24:28.123Z,92964.63
2023-05-05T07:26:54.574Z,92967.91
2023-05-05T07:29:21.096Z,92961.75
2023-05-05T07:31:47.664Z,92964.81
2023-05-05T07:34:14.148Z,92970.19
2023-05-05T07:36:40.766Z,92966.28
2023-05-05T07:39:07.377Z,92976.84
2023-05-05T07:41:33.896Z,92974.81
2023-05-05T07:44:01.153Z,92965.34
2023-05-05T07:46:27.658Z,92970.81
2023-05-05T07:48:54.192Z,92974.22
2023-05-05T07:51:21.460Z,92977.63
2023-05-05T07:53:48.035Z,92980.63
2023-05-05T07:56:14.519Z,92975.97
2023-05-05T07:58:41.005Z,92970.25
2023-05-05T08:01:10.739Z,92968.00
2023-05-05T08:03:37.425Z,92965.00
2023-05-05T08:06:11.264Z,92970.66
2023-05-05T08:08:37.870Z,92974.84
2023-05-05T08:11:06.331Z,92965.03
2023-05-05T08:13:32.893Z,92963.97
2023-05-05T08:15:59.426Z,92964.56
2023-05-05T08:18:26.497Z,92970.06
2023-05-05T08:20:54.553Z,92961.16
2023-05-05T08:23:21.516Z,92960.94
2023-05-05T08:25:48.001Z,92964.88
2023-05-05T08:28:14.478Z,92957.59
2023-05-05T08:30:41.049Z,92967.06
2023-05-05T08:33:07.558Z,92962.75
2023-05-05T08:35:34.098Z,92962.56
2023-05-05T08:38:00.582Z,92959.31
2023-05-05T08:40:30.078Z,92958.06
2023-05-05T08:42:56.586Z,92956.47
2023-05-05T08:45:23.057Z,92955.38
2023-05-05T08:47:49.545Z,92959.03
2023-05-05T08:50:16.328Z,92952.56
2023-05-05T08:52:45.837Z,92948.00
2023-05-05T08:55:26.255Z,92943.56
2023-05-05T08:57:56.904Z,92940.78
2023-05-05T09:00:23.745Z,92939.88
2023-05-05T09:02:50.376Z,92941.16
2023-05-05T09:05:17.640Z,92939.31
2023-05-05T09:07:44.261Z,92942.81
2023-05-05T09:10:11.437Z,92937.28
2023-05-05T09:12:40.417Z,92933.78
2023-05-05T09:15:14.202Z,92935.63
2023-05-05T09:17:41.049Z,92944.50
2023-05-05T09:20:11.696Z,92941.91
2023-05-05T09:22:46.107Z,92939.69
2023-05-05T09:25:13.993Z,92937.47
2023-05-05T09:27:49.575Z,92928.16
2023-05-05T09:30:17.523Z,92938.06
2023-05-05T09:32:53.933Z,92926.69
2023-05-05T09:35:21.074Z,92929.44
2023-05-05T09:37:47.535Z,92924.88
2023-05-05T09:40:15.380Z,92923.72
2023-05-05T09:42:41.885Z,92922.53
2023-05-05T09:45:17.308Z,92920.19
2023-05-05T09:47:45.573Z,92919.88
2023-05-05T09:50:15.832Z,92917.91
2023-05-05T09:52:42.871Z,92922.81
2023-05-05T09:55:17.513Z,92911.41
2023-05-05T09:57:44.028Z,92917.50
2023-05-05T10:00:11.167Z,92915.88
2023-05-05T10:02:38.826Z,92900.63
2023-05-05T10:05:09.563Z,92902.22
2023-05-05T10:07:36.778Z,92897.38
2023-05-05T10:10:04.870Z,92897.22
2023-05-05T10:12:31.381Z,92897.91
2023-05-05T10:14:57.956Z,92899.88
2023-05-05T10:17:24.459Z,92899.38
2023-05-05T10:19:51.863Z,92893.81
2023-05-05T10:22:18.359Z,92896.59
2023-05-05T10:24:47.492Z,92889.06
2023-05-05T10:27:20.502Z,92895.50
2023-05-05T10:29:49.937Z,92886.53
2023-05-05T10:32:53.504Z,92884.09
2023-05-05T10:35:22.108Z,92896.78
2023-05-05T10:37:49.135Z,92889.94
2023-05-05T10:40:15.903Z,92881.69
2023-05-05T10:42:42.522Z,92892.91
2023-05-05T10:45:09.472Z,92888.53
2023-05-05T10:47:36.707Z,92888.44
2023-05-05T10:50:14.812Z,92889.09
2023-05-05T10:53:08.817Z,92875.69
2023-05-05T10:55:41.972Z,92873.19
2023-05-05T10:58:08.432Z,92872.53
2023-05-05T11:00:37.868Z,92868.84
2023-05-05T11:03:16.726Z,92860.53
2023-05-05T11:06:15.816Z,92858.63
2023-05-05T11:08:43.581Z,92858.16
2023-05-05T11:11:10.856Z,92850.97
2023-05-05T11:13:38.580Z,92851.09
2023-05-05T11:16:05.385Z,92846.25
2023-05-05T11:18:39.348Z,92850.38
2023-05-05T11:21:18.157Z,92847.09
2023-05-05T11:23:49.096Z,92847.88
2023-05-05T11:26:16.191Z,92848.66
2023-05-05T11:29:00.119Z,92842.78
2023-05-05T11:31:26.815Z,92842.38
2023-05-05T11:33:53.509Z,92840.34
2023-05-05T11:36:20.464Z,92834.59
2023-05-05T11:39:08.824Z,92838.03
2023-05-05T11:41:56.510Z,92832.63
2023-05-05T11:44:30.736Z,92817.31
2023-05-05T11:46:57.104Z,92830.47
2023-05-05T11:49:29.390Z,92818.97
2023-05-05T11:52:05.926Z,92820.13
2023-05-05T11:54:32.564Z,92821.06
2023-05-05T11:57:07.732Z,92828.25
2023-05-05T11:59:36.285Z,92824.50
2023-05-05T12:02:03.618Z,92826.34
2023-05-05T12:04:31.056Z,92825.16
2023-05-05T12:06:57.864Z,92816.63
2023-05-05T12:09:24.364Z,92826.75
2023-05-05T12:11:58.044Z,92820.25
2023-05-05T12:14:25.012Z,92815.69
2023-05-05T12:16:58.045Z,92818.69
2023-05-05T12:19:24.561Z,92822.38
2023-05-05T12:21:51.264Z,92814.00
2023-05-05T12:24:17.734Z,92810.25
2023-05-05T12:26:44.230Z,92813.34
2023-05-05T12:29:10.865Z,92809.47
2023-05-05T12:31:38.121Z,92812.81
2023-05-05T12:34:05.138Z,92805.28
2023-05-05T12:36:33.584Z,92803.34
2023-05-05T12:39:00.160Z,92808.19
2023-05-05T12:41:26.861Z,92809.28
2023-05-05T12:43:59.596Z,92810.75
2023-05-05T12:46:26.437Z,92797.63
2023-05-05T12:49:06.740Z,92793.00
2023-05-05T12:51:34.023Z,92797.94
2023-05-05T12:54:10.199Z,92793.22
2023-05-05T12:56:40.477Z,92784.28
2023-05-05T12:59:08.059Z,92779.81
2023-05-05T13:01:50.197Z,92782.06
2023-05-05T13:04:16.908Z,92779.56
2023-05-05T13:06:44.990Z,92772.81
2023-05-05T13:09:28.198Z,92753.91
2023-05-05T13:11:54.775Z,92746.31
2023-05-05T13:14:21.559Z,92748.75
2023-05-05T13:16:48.091Z,92746.03
2023-05-05T13:19:14.619Z,92743.56
2023-05-05T13:21:41.721Z,92744.63
2023-05-05T13:24:23.715Z,92739.66
2023-05-05T13:26:55.759Z,92749.97
2023-05-05T13:29:24.258Z,92743.50
2023-05-05T13:31:52.701Z,92742.59
2023-05-05T13:34:19.246Z,92725.56
2023-05-05T13:36:45.848Z,92723.81
2023-05-05T13:39:12.589Z,92718.16
2023-05-05T13:41:39.165Z,92714.16
2023-05-05T13:44:05.661Z,92717.31
2023-05-05T13:46:32.620Z,92720.47
2023-05-05T13:48:59.143Z,92719.09
2023-05-05T13:51:25.683Z,92715.88
2023-05-05T13:53:52.390Z,92714.56
2023-05-05T13:56:19.118Z,92704.47
2023-05-05T13:58:46.310Z,92692.72
2023-05-05T14:01:12.879Z,92682.13
2023-05-05T14:03:39.662Z,92676.19
2023-05-05T14:06:07.454Z,92689.38
2023-05-05T14:08:34.055Z,92689.94
2023-05-05T14:11:00.570Z,92683.00
2023-05-05T14:13:27.016Z,92686.03
2023-05-05T14:15:53.792Z,92695.44
2023-05-05T14:18:20.763Z,92696.91
2023-05-05T14:20:47.269Z,92708.63
2023-05-05T14:23:13.730Z,92716.03
2023-05-05T14:25:40.222Z,92715.44
2023-05-05T14:28:07.097Z,92701.41
2023-05-05T14:30:33.588Z,92706.16
2023-05-05T14:33:01.193Z,92703.34
2023-05-05T14:35:27.819Z,92709.75
2023-05-05T14:37:54.278Z,92709.22
2023-05-05T14:40:20.776Z,92716.59
2023-05-05T14:42:47.229Z,92724.81
2023-05-05T14:45:13.682Z,92721.94
2023-05-05T14:47:40.363Z,92720.44
2023-05-05T14:50:09.620Z,92730.59
2023-05-05T14:52:40.276Z,92718.88
2023-05-05T14:55:07.427Z,92733.47
2023-05-05T14:57:34.450Z,92724.25
2023-05-05T15:00:00.923Z,92727.50
2023-05-05T15:02:27.500Z,92724.41
2023-05-05T15:04:54.044Z,92727.16
2023-05-05T15:07:22.031Z,92720.69
2023-05-05T15:09:48.501Z,92734.97
2023-05-05T15:12:14.993Z,92724.25
2023-05-05T15:14:42.160Z,92723.88
2023-05-05T15:17:08.685Z,92714.34
2023-05-05T15:19:35.198Z,92722.38
2023-05-05T15:22:01.705Z,92714.16
2023-05-05T15:24:28.247Z,92721.81
2023-05-05T15:26:54.769Z,92712.47
2023-05-05T15:29:21.470Z,92724.72
2023-05-05T15:31:47.987Z,92735.06
2023-05-05T15:34:14.497Z,92729.38
2023-05-05T15:36:40.968Z,92726.72
2023-05-05T15:39:07.449Z,92735.03
2023-05-05T15:41:34.061Z,92735.34
2023-05-05T15:44:02.012Z,92732.38
2023-05-05T15:46:31.326Z,92746.03
2023-05-05T15:48:57.877Z,92741.75
2023-05-05T15:51:24.390Z,92739.16
2023-05-05T15:53:52.320Z,92746.41
2023-05-05T15:56:19.177Z,92741.06
2023-05-05T15:58:45.712Z,92747.94
2023-05-05T16:01:12.363Z,92738.66
2023-05-05T16:03:38.854Z,92736.38
2023-05-05T16:06:05.594Z,92751.81
2023-05-05T16:08:32.176Z,92740.09
2023-05-05T16:10:58.638Z,92753.09
2023-05-05T16:13:25.234Z,92745.28
2023-05-05T16:15:51.713Z,92748.59
2023-05-05T16:18:18.177Z,92768.66
2023-05-05T16:20:44.690Z,92756.75
2023-05-05T16:23:11.220Z,92766.78
2023-05-05T16:25:37.712Z,92768.41
2023-05-05T16:28:04.425Z,92767.59
2023-05-05T16:30:30.902Z,92763.09
2023-05-05T16:32:57.408Z,92759.66
2023-05-05T16:35:23.972Z,92767.41
2023-05-05T16:37:50.469Z,92767.38
2023-05-05T16:40:16.968Z,92762.66
2023-05-05T16:42:44.632Z,92757.66
2023-05-05T16:45:11.517Z,92761.91
2023-05-05T16:47:38.325Z,92763.69
2023-05-05T16:50:05.395Z,92765.22
2023-05-05T16:52:31.865Z,92775.38
2023-05-05T16:54:58.314Z,92783.72
2023-05-05T16:57:24.842Z,92773.53
2023-05-05T16:59:55.512Z,92786.22
2023-05-05T17:02:22.187Z,92784.16
2023-05-05T17:04:49.093Z,92772.25
2023-05-05T17:07:15.604Z,92774.59
2023-05-05T17:09:42.080Z,92783.44
2023-05-05T17:12:08.603Z,92780.84
2023-05-05T17:14:35.453Z,92785.81
2023-05-05T17:17:01.988Z,92780.50
2023-05-05T17:19:28.511Z,92794.28
2023-05-05T17:21:55.181Z,92806.47
2023-05-05T17:24:21.909Z,92805.28
2023-05-05T17:26:48.797Z,92801.13
2023-05-05T17:29:19.565Z,92808.84
2023-05-05T17:31:46.564Z,92802.47
2023-05-05T17:34:13.071Z,92801.47
2023-05-05T17:36:39.603Z,92804.97
2023-05-05T17:39:06.122Z,92802.59
2023-05-05T17:41:32.608Z,92797.13
2023-05-05T17:43:59.444Z,92788.78
2023-05-05T17:46:26.156Z,92798.09
2023-05-05T17:48:52.984Z,92799.72
2023-05-05T17:51:19.544Z,92808.44
2023-05-05T17:53:46.023Z,92799.06
2023-05-05T17:56:12.488Z,92803.63
2023-05-05T17:58:39.132Z,92807.63
2023-05-05T18:01:06.344Z,92809.31
2023-05-05T18:03:33.100Z,92812.25
2023-05-05T18:05:59.824Z,92808.63
2023-05-05T18:08:26.882Z,92824.94
2023-05-05T18:10:54.201Z,92821.59
2023-05-05T18:13:21.445Z,92821.34
2023-05-05T18:15:48.013Z,92821.59
2023-05-05T18:18:14.642Z,92818.03
2023-05-05T18:20:41.169Z,92816.72
2023-05-05T18:23:07.649Z,92824.34
2023-05-05T18:25:34.147Z,92823.00
2023-05-05T18:28:00.688Z,92823.63
2023-05-05T18:30:27.267Z,92834.25
2023-05-05T18:32:53.821Z,92828.41
2023-05-05T18:35:21.329Z,92828.81
2023-05-05T18:37:47.896Z,92830.88
2023-05-05T18:40:14.528Z,92838.94
2023-05-05T18:42:41.552Z,92840.28
2023-05-05T18:45:08.962Z,92840.56
2023-05-05T18:47:39.561Z,92844.28
2023-05-05T18:50:06.556Z,92840.88
2023-05-05T18:52:33.262Z,92842.88
2023-05-05T18:54:59.727Z,92844.97
2023-05-05T18:57:27.250Z,92843.81
2023-05-05T18:59:53.763Z,92854.75
2023-05-05T19:02:20.249Z,92843.56
2023-05-05T19:04:46.810Z,92849.88
2023-05-05T19:07:23.905Z,92862.09
2023-05-05T19:09:58.046Z,92857.66
2023-05-05T19:12:24.591Z,92861.91
2023-05-05T19:14:51.103Z,92857.44
2023-05-05T19:17:17.581Z,92865.91
2023-05-05T19:19:44.060Z,92871.88
2023-05-05T19:22:10.528Z,92875.88
2023-05-05T19:24:36.982Z,92875.16
2023-05-05T19:27:03.863Z,92854.53
2023-05-05T19:29:33.081Z,92857.72
2023-05-05T19:31:59.589Z,92866.72
2023-05-05T19:34:26.601Z,92868.94
2023-05-05T19:36:53.063Z,92869.44
2023-05-05T19:39:19.760Z,92884.84
2023-05-05T19:41:46.491Z,92874.97
2023-05-05T19:44:12.977Z,92881.69
2023-05-05T19:46:39.510Z,92879.94
2023-05-05T19:49:06.572Z,92875.47
2023-05-05T19:51:33.079Z,92873.72
2023-05-05T19:53:59.583Z,92876.19
2023-05-05T19:56:26.258Z,92880.91
2023-05-05T19:58:59.401Z,92884.09
2023-05-05T20:01:26.788Z,92884.59
2023-05-05T20:03:54.580Z,92884.09
2023-05-05T20:06:21.493Z,92873.38
2023-05-05T20:08:47.979Z,92867.41
2023-05-05T20:11:15.359Z,92860.44
2023-05-05T20:13:42.161Z,92868.94
2023-05-05T20:16:08.944Z,92869.00
2023-05-05T20:18:35.557Z,92883.94
2023-05-05T20:21:02.102Z,92875.03
2023-05-05T20:23:28.646Z,92883.47
2023-05-05T20:25:55.875Z,92879.50
2023-05-05T20:28:22.434Z,92879.31
2023-05-05T20:30:49.002Z,92878.84
2023-05-05T20:33:15.706Z,92887.09
2023-05-05T20:35:42.222Z,92880.13
2023-05-05T20:38:09.739Z,92869.97
2023-05-05T20:40:36.338Z,92869.00
2023-05-05T20:43:03.061Z,92874.22
2023-05-05T20:45:31.909Z,92877.22
2023-05-05T20:47:59.846Z,92872.78
2023-05-05T20:50:26.607Z,92876.50
2023-05-05T20:52:53.161Z,92877.50
2023-05-05T20:55:19.676Z,92883.94
2023-05-05T20:57:46.219Z,92875.28
2023-05-05T21:00:14.366Z,92866.81
2023-05-05T21:02:41.841Z,92881.94
2023-05-05T21:05:08.778Z,92889.16
2023-05-05T21:07:35.319Z,92876.25
2023-05-05T21:10:02.474Z,92875.28
2023-05-05T21:12:29.086Z,92877.75
2023-05-05T21:14:59.518Z,92885.94
2023-05-05T21:17:26.734Z,92885.66
2023-05-05T21:19:54.029Z,92885.94
2023-05-05T21:22:20.898Z,92871.81
2023-05-05T21:24:47.376Z,92883.94
2023-05-05T21:27:13.971Z,92875.25
2023-05-05T21:29:40.808Z,92866.59
2023-05-05T21:32:08.405Z,92852.94
2023-05-05T21:34:34.940Z,92863.84
2023-05-05T21:37:01.435Z,92858.88
2023-05-05T21:39:28.357Z,92866.78
2023-05-05T21:41:54.829Z,92859.34
2023-05-05T21:44:21.308Z,92865.78
2023-05-05T21:46:47.983Z,92869.00
2023-05-05T21:49:17.669Z,92860.06
2023-05-05T21:51:44.544Z,92848.91
2023-05-05T21:54:10.999Z,92852.59
2023-05-05T21:56:37.558Z,92853.84
2023-05-05T21:59:04.814Z,92841.94
2023-05-05T22:01:31.539Z,92848.88
2023-05-05T22:03:58.285Z,92850.63
2023-05-05T22:06:24.881Z,92853.81
2023-05-05T22:08:51.585Z,92858.97
2023-05-05T22:11:18.536Z,92852.03
2023-05-05T22:13:46.203Z,92850.63
2023-05-05T22:16:14.288Z,92845.91
2023-05-05T22:18:40.792Z,92839.50
2023-05-05T22:21:07.287Z,92854.13
2023-05-05T22:23:33.825Z,92855.13
2023-05-05T22:26:00.372Z,92862.56
2023-05-05T22:28:27.704Z,92863.81
2023-05-05T22:30:54.164Z,92866.53
2023-05-05T22:33:20.721Z,92867.81
2023-05-05T22:35:47.367Z,92874.50
2023-05-05T22:38:13.853Z,92882.91
2023-05-05T22:40:40.406Z,92883.44
2023-05-05T22:43:06.917Z,92890.59
2023-05-05T22:45:33.368Z,92885.41
2023-05-05T22:47:59.949Z,92881.16
2023-05-05T22:50:26.654Z,92873.00
2023-05-05T22:52:53.163Z,92864.78
2023-05-05T22:55:20.280Z,92860.34
2023-05-05T22:57:47.348Z,92866.28
2023-05-05T23:00:14.523Z,92859.13
2023-05-05T23:02:41.544Z,92857.13
2023-05-05T23:05:08.600Z,92863.84
2023-05-05T23:07:35.263Z,92855.66
2023-05-05T23:10:01.801Z,92856.91
2023-05-05T23:12:28.354Z,92861.13
2023-05-05T23:14:54.874Z,92854.44
2023-05-05T23:17:21.360Z,92860.38
2023-05-05T23:19:48.092Z,92865.09
2023-05-05T23:22:14.667Z,92867.34
2023-05-05T23:27:07.617Z,92879.97
2023-05-05T23:29:34.132Z,92882.72
2023-05-05T23:32:00.648Z,92881.44
2023-05-05T23:34:27.162Z,92865.09
2023-05-05T23:36:53.621Z,92860.59
2023-05-05T23:39:20.081Z,92853.41
2023-05-05T23:41:46.604Z,92846.44
2023-05-05T23:44:13.147Z,92835.25
2023-05-05T23:46:39.730Z,92832.53
2023-05-05T23:49:06.251Z,92829.31
2023-05-05T23:51:32.739Z,92828.56
2023-05-05T23:53:59.395Z,92826.59
2023-05-05T23:56:26.295Z,92828.06
2023-05-05T23:58:53.008Z,92819.16
